createdAt,value
2018-01-30T00:14:14.002Z,9.00
2018-01-30T00:19:14.984Z,8.10
2018-01-30T00:24:15.946Z,8.20
2018-01-30T00:29:16.935Z,8.20
2018-01-30T00:34:17.911Z,8.20
2018-01-30T00:39:18.891Z,8.20
2018-01-30T00:44:19.879Z,8.20
2018-01-30T00:49:20.859Z,8.10
2018-01-30T00:54:21.845Z,8.10
2018-01-30T00:59:22.835Z,8.10
2018-01-30T01:04:23.842Z,8.00
2018-01-30T01:09:25.574Z,7.80
2018-01-30T01:14:26.551Z,7.70
2018-01-30T01:19:27.540Z,7.80
2018-01-30T01:24:28.514Z,7.70
2018-01-30T01:29:29.553Z,7.80
2018-01-30T01:34:30.530Z,7.80
2018-01-30T01:39:31.498Z,7.80
2018-01-30T01:44:32.487Z,7.80
2018-01-30T01:49:33.470Z,7.70
2018-01-30T01:54:34.442Z,7.70
2018-01-30T01:59:35.410Z,7.40
2018-01-30T02:04:36.410Z,7.10
2018-01-30T02:09:37.391Z,6.90
2018-01-30T02:14:38.390Z,6.90
2018-01-30T02:19:39.386Z,6.80
2018-01-30T02:24:41.098Z,6.90
2018-01-30T02:29:42.850Z,6.80
2018-01-30T02:34:43.826Z,6.80
2018-01-30T02:39:44.806Z,6.80
2018-01-30T02:44:45.796Z,6.80
2018-01-30T02:49:46.779Z,6.80
2018-01-30T02:54:47.750Z,6.70
2018-01-30T02:59:48.723Z,6.60
2018-01-30T03:04:49.686Z,6.40
2018-01-30T03:09:50.666Z,6.10
2018-01-30T03:14:51.635Z,5.90
2018-01-30T03:19:52.602Z,6.10
2018-01-30T03:24:54.320Z,6.00
2018-01-30T03:29:55.303Z,5.90
2018-01-30T03:34:56.274Z,6.00
2018-01-30T03:39:58.003Z,5.90
2018-01-30T03:44:58.995Z,5.90
2018-01-30T03:49:59.991Z,5.90
2018-01-30T03:55:00.987Z,5.70
2018-01-30T04:00:01.985Z,5.70
2018-01-30T04:05:02.955Z,5.50
2018-01-30T04:10:03.926Z,5.40
2018-01-30T04:15:04.906Z,5.20
2018-01-30T04:20:05.902Z,4.90
2018-01-30T04:25:06.887Z,4.50
2018-01-30T04:30:07.862Z,4.70
2018-01-30T04:35:08.834Z,4.70
2018-01-30T04:40:09.807Z,4.80
2018-01-30T04:45:10.786Z,4.80
2018-01-30T04:50:11.759Z,4.70
2018-01-30T04:55:12.742Z,4.60
2018-01-30T05:00:13.726Z,4.50
2018-01-30T05:05:16.075Z,4.40
2018-01-30T05:10:17.118Z,4.40
2018-01-30T05:15:18.087Z,4.30
2018-01-30T05:20:19.066Z,4.20
2018-01-30T05:25:20.047Z,4.10
2018-01-30T05:30:21.023Z,4.00
2018-01-30T05:35:22.011Z,4.00
2018-01-30T05:40:23.010Z,3.90
2018-01-30T05:50:31.862Z,3.70
2018-01-30T05:55:32.834Z,3.70
2018-01-30T06:00:33.835Z,3.50
2018-01-30T06:05:34.808Z,3.60
2018-01-30T06:10:35.778Z,3.60
2018-01-30T06:15:38.682Z,3.50
2018-01-30T06:20:39.662Z,3.50
2018-01-30T06:25:40.634Z,3.50
2018-01-30T06:30:41.603Z,3.40
2018-01-30T06:35:43.346Z,3.30
2018-01-30T06:40:44.326Z,3.30
2018-01-30T06:45:45.303Z,3.30
2018-01-30T06:50:46.266Z,3.20
2018-01-30T06:55:47.234Z,3.10
2018-01-30T07:00:48.947Z,3.00
2018-01-30T07:05:49.918Z,2.90
2018-01-30T07:10:50.899Z,3.10
2018-01-30T07:15:52.613Z,3.10
2018-01-30T07:20:53.587Z,3.00
2018-01-30T07:25:54.554Z,3.10
2018-01-30T07:30:55.534Z,3.10
2018-01-30T07:35:57.251Z,2.90
2018-01-30T07:40:58.224Z,2.90
2018-01-30T07:45:59.215Z,3.20
2018-01-30T07:51:00.182Z,4.00
2018-01-30T07:56:01.902Z,4.80
2018-01-30T08:01:02.883Z,4.80
2018-01-30T08:06:03.871Z,5.40
2018-01-30T08:11:04.863Z,6.30
2018-01-30T08:16:05.842Z,6.70
2018-01-30T08:21:06.815Z,7.00
2018-01-30T08:26:07.799Z,7.50
2018-01-30T08:31:08.774Z,7.70
2018-01-30T08:36:09.739Z,8.20
2018-01-30T08:41:11.471Z,8.20
2018-01-30T08:46:12.473Z,8.10
2018-01-30T08:51:13.463Z,8.80
2018-01-30T08:56:14.450Z,9.10
2018-01-30T09:01:15.431Z,9.40
2018-01-30T09:06:16.414Z,9.80
2018-01-30T09:11:17.399Z,10.50
2018-01-30T09:16:18.370Z,11.40
2018-01-30T09:21:20.236Z,11.10
2018-01-30T09:26:21.227Z,10.80
2018-01-30T09:31:22.198Z,9.60
2018-01-30T09:36:23.186Z,9.90
2018-01-30T09:41:24.163Z,9.20
2018-01-30T09:46:25.155Z,8.50
2018-01-30T09:51:26.130Z,8.30
2018-01-30T09:56:27.114Z,8.40
2018-01-30T10:01:28.122Z,8.50
2018-01-30T10:06:29.891Z,8.20
2018-01-30T10:11:31.698Z,8.00
2018-01-30T10:16:32.678Z,7.90
2018-01-30T10:21:33.656Z,8.20
2018-01-30T10:26:34.623Z,8.20
2018-01-30T10:31:36.363Z,8.40
2018-01-30T10:36:37.339Z,8.40
2018-01-30T10:41:38.310Z,8.60
2018-01-30T10:46:39.280Z,8.50
2018-01-30T10:51:40.251Z,8.50
2018-01-30T10:56:41.954Z,9.40
2018-01-30T11:01:43.666Z,9.70
2018-01-30T11:06:44.648Z,9.70
2018-01-30T11:11:52.609Z,9.00
2018-01-30T11:16:53.599Z,9.10
2018-01-30T11:21:54.685Z,9.90
2018-01-30T11:26:55.569Z,10.00
2018-01-30T11:31:56.546Z,10.20
2018-01-30T11:36:57.530Z,10.50
2018-01-30T11:41:58.538Z,10.30
2018-01-30T11:46:59.523Z,10.20
2018-01-30T11:52:00.507Z,9.80
2018-01-30T11:57:01.829Z,9.90
2018-01-30T12:02:02.799Z,9.50
2018-01-30T12:07:04.585Z,9.50
2018-01-30T12:12:05.558Z,9.50
2018-01-30T12:17:06.536Z,9.60
2018-01-30T12:22:07.632Z,9.30
2018-01-30T12:27:08.604Z,9.30
2018-01-30T12:32:09.582Z,9.30
2018-01-30T12:37:10.550Z,9.50
2018-01-30T12:42:11.535Z,9.40
2018-01-30T12:47:12.556Z,9.50
2018-01-30T12:52:14.787Z,9.30
2018-01-30T12:57:16.884Z,9.10
2018-01-30T13:02:17.919Z,9.00
2018-01-30T13:07:18.945Z,9.10
2018-01-30T13:12:19.923Z,9.60
2018-01-30T13:17:21.639Z,9.50
2018-01-30T13:22:22.687Z,9.40
2018-01-30T13:27:23.814Z,9.40
2018-01-30T13:32:24.794Z,9.50
2018-01-30T13:37:25.766Z,9.40
2018-01-30T13:42:26.752Z,9.50
2018-01-30T13:47:28.516Z,9.40
2018-01-30T13:52:29.515Z,9.40
2018-01-30T13:57:30.635Z,9.30
2018-01-30T14:02:31.622Z,9.20
2018-01-30T14:07:32.592Z,9.20
2018-01-30T14:12:33.599Z,9.20
2018-01-30T14:17:34.572Z,9.20
2018-01-30T14:22:35.552Z,9.00
2018-01-30T14:27:36.584Z,9.00
2018-01-30T14:32:37.586Z,9.00
2018-01-30T14:37:39.318Z,8.90
2018-01-30T14:42:40.306Z,8.90
2018-01-30T14:47:56.234Z,8.90
2018-01-30T14:52:57.231Z,8.80
2018-01-30T14:57:58.205Z,8.70
2018-01-30T15:02:59.198Z,8.80
2018-01-30T15:08:00.227Z,8.80
2018-01-30T15:13:01.966Z,8.80
2018-01-30T15:18:02.950Z,8.80
2018-01-30T15:23:03.919Z,8.70
2018-01-30T15:28:04.891Z,8.60
2018-01-30T15:33:05.870Z,8.60
2018-01-30T15:38:07.106Z,8.50
2018-01-30T15:43:08.108Z,8.40
2018-01-30T15:48:09.110Z,8.30
2018-01-30T15:53:10.830Z,8.10
2018-01-30T15:58:11.902Z,8.10
2018-01-30T16:03:13.655Z,8.00
2018-01-30T16:08:14.640Z,7.90
2018-01-30T16:13:15.622Z,7.80
2018-01-30T16:18:16.854Z,7.80
2018-01-30T16:23:18.567Z,7.60
2018-01-30T16:28:19.542Z,7.50
2018-01-30T16:33:20.518Z,7.50
2018-01-30T16:38:22.263Z,7.50
2018-01-30T16:43:23.279Z,7.50
2018-01-30T16:48:24.274Z,7.50
2018-01-30T16:53:26.020Z,7.50
2018-01-30T16:58:27.007Z,7.50
2018-01-30T17:03:27.990Z,7.60
2018-01-30T17:08:28.979Z,7.60
2018-01-30T17:13:29.992Z,7.60
2018-01-30T17:18:30.983Z,7.60
2018-01-30T17:23:31.962Z,7.60
2018-01-30T17:28:32.945Z,7.60
2018-01-30T17:33:33.923Z,7.60
2018-01-30T17:38:34.910Z,7.70
2018-01-30T17:49:08.683Z,7.60
2018-01-30T17:54:09.675Z,7.50
2018-01-30T17:59:10.704Z,7.60
2018-01-30T18:04:12.500Z,7.50
2018-01-30T18:09:14.264Z,7.50
2018-01-30T18:14:15.280Z,7.50
2018-01-30T18:19:17.026Z,7.40
2018-01-30T18:24:18.046Z,7.40
2018-01-30T18:29:19.130Z,7.50
2018-01-30T18:34:20.160Z,7.40
2018-01-30T18:39:21.251Z,7.40
2018-01-30T18:44:22.310Z,7.40
2018-01-30T18:49:23.406Z,7.40
2018-01-30T18:54:24.454Z,7.40
2018-01-30T18:59:25.599Z,7.50
2018-01-30T19:04:26.627Z,7.60
2018-01-30T19:09:27.703Z,7.70
2018-01-30T19:14:28.713Z,7.70
2018-01-30T19:19:29.735Z,7.80
2018-01-30T19:24:30.755Z,7.80
2018-01-30T19:29:32.502Z,7.80
2018-01-30T19:34:33.526Z,7.80
2018-01-30T19:39:34.590Z,7.70
2018-01-30T19:44:35.583Z,7.60
2018-01-30T19:49:36.612Z,7.60
2018-01-30T19:54:37.658Z,7.50
2018-01-30T19:59:38.679Z,7.40
2018-01-30T20:04:40.570Z,7.30
2018-01-30T20:09:42.331Z,7.20
2018-01-30T20:14:43.331Z,7.20
2018-01-30T20:19:44.379Z,7.30
2018-01-30T20:24:45.421Z,7.30
2018-01-30T20:29:47.227Z,7.40
2018-01-30T20:34:48.334Z,7.40
2018-01-30T20:39:49.390Z,7.40
2018-01-30T20:44:50.382Z,7.40
2018-01-30T20:49:52.102Z,7.40
2018-01-30T20:54:53.083Z,7.40
2018-01-30T20:59:54.151Z,7.30
2018-01-30T21:04:55.897Z,7.40
2018-01-30T21:09:56.883Z,7.30
2018-01-30T21:14:57.942Z,7.40
2018-01-30T21:19:59.654Z,7.60
2018-01-30T21:25:00.638Z,7.60
2018-01-30T21:30:01.630Z,7.60
2018-01-30T21:35:02.719Z,7.60
2018-01-30T21:40:03.743Z,7.50
2018-01-30T21:45:05.470Z,7.50
2018-01-30T21:50:06.550Z,7.50
2018-01-30T21:55:07.612Z,7.50
2018-01-30T22:00:09.351Z,7.50
2018-01-30T22:05:10.354Z,7.50
2018-01-30T22:10:11.340Z,7.50
2018-01-30T22:15:12.404Z,7.50
2018-01-30T22:20:13.403Z,7.60
2018-01-30T22:25:14.463Z,7.70
2018-01-30T22:30:15.463Z,7.60
2018-01-30T22:35:16.453Z,7.60
2018-01-30T22:40:17.442Z,7.60
2018-01-30T22:45:18.454Z,7.60
